Time;durP1;ratioP1;P1;durP2;ratioP2;P2;SDS_P1;SDS_P2;PMS_P1;PMS_P2;Temp;Humidity;BMP_temperature;BMP_pressure;BME280_temperature;BME280_humidity;BME280_pressure;Samples;Min_cycle;Max_cycle;Signal;HPM_P1;HPM_P2
2022/07/03 00:01:28;;;;;;;;;;;;;;;-140.72;100.00;52376.66;4990333;28;19927;-68
2022/07/03 00:03:53;;;;;;;;;;;;;;;-140.72;100.00;52380.72;4992338;28;19933;-68
2022/07/03 00:06:18;;;;;;;;;;;;;;;-140.72;100.00;52388.84;4989895;28;19925;-69
2022/07/03 00:08:45;;;;;;;;;;;;;;;-140.72;100.00;52398.97;4997279;28;20126;-68
2022/07/03 00:11:11;;;;;;;;;;;;;;;-140.72;100.00;52423.31;4999545;28;19906;-68
2022/07/03 00:13:36;;;;;;;;;;;;;;;-140.72;100.00;52366.50;4996451;28;19902;-69
2022/07/03 00:16:02;;;;;;;;;;;;;;;-140.72;100.00;52423.31;4981921;28;19926;-68
2022/07/03 00:18:27;;;;;;;;;;;;;;;-140.72;100.00;52372.59;4984033;28;19973;-70
2022/07/03 00:21:03;;;;;;;;;;;;;;;-140.72;100.00;52352.31;4998600;28;19906;-68
2022/07/03 00:23:37;;;;;;;;;;;;;;;-140.72;100.00;52378.69;4998961;28;20281;-68
2022/07/03 00:26:04;;;;;;;;;;;;;;;-140.72;100.00;52358.41;4999387;28;19985;-68
2022/07/03 00:28:31;;;;;;;;;;;;;;;-140.72;100.00;52398.97;4997531;28;19926;-68
2022/07/03 00:30:57;;;;;;;;;;;;;;;-140.72;100.00;52394.91;4998945;28;19914;-69
2022/07/03 00:33:24;;;;;;;;;;;;;;;-140.72;100.00;52370.56;4998509;28;20381;-69
2022/07/03 00:35:53;;;;;;;;;;;;;;;-140.72;100.00;52360.44;5014052;28;19926;-69
2022/07/03 00:38:18;;;;;;;;;;;;;;;-140.72;100.00;52378.69;4998644;28;19953;-69
2022/07/03 00:40:43;;;;;;;;;;;;;;;-140.72;100.00;52362.44;4998357;28;19923;-68
2022/07/03 00:43:09;;;;;;;;;;;;;;;-140.72;100.00;52380.72;4999155;28;19930;-68
2022/07/03 00:45:34;;;;;;;;;;;;;;;-140.72;100.00;52396.94;4998941;28;19922;-68
2022/07/03 00:48:00;;;;;;;;;;;;;;;-140.72;100.00;52378.69;4997863;28;20014;-68
2022/07/03 00:50:33;;;;;;;;;;;;;;;-140.72;100.00;52403.03;4998042;28;19942;-68
2022/07/03 00:52:58;;;;;;;;;;;;;;;-140.72;100.00;52334.03;4985302;28;19922;-68
2022/07/03 00:55:26;;;;;;;;;;;;;;;-140.72;100.00;52364.47;4998506;28;19981;-68
2022/07/03 00:57:52;;;;;;;;;;;;;;;-140.72;100.00;52403.03;4998226;28;20005;-68
2022/07/03 01:00:17;;;;;;;;;;;;;;;-140.72;100.00;52398.97;4999323;28;19946;-68
2022/07/03 01:02:42;;;;;;;;;;;;;;;-140.72;100.00;52409.13;4997913;28;19973;-68
2022/07/03 01:05:12;;;;;;;;;;;;;;;-140.72;100.00;52407.09;5005719;28;19910;-68
2022/07/03 01:07:51;;;;;;;;;;;;;;;-140.72;100.00;52382.75;4994601;28;19926;-69
2022/07/03 01:10:17;;;;;;;;;;;;;;;-140.72;100.00;52398.97;4988188;28;19923;-69
2022/07/03 01:12:55;;;;;;;;;;;;;;;-140.72;100.00;52386.81;4984424;28;19916;-68
2022/07/03 01:15:36;;;;;;;;;;;;;;;-140.72;100.00;52419.28;4997835;28;19922;-68
2022/07/03 01:18:13;;;;;;;;;;;;;;;-140.72;100.00;52374.63;4979478;28;19906;-68
2022/07/03 01:20:38;;;;;;;;;;;;;;;-140.72;100.00;52419.28;4979438;28;19922;-68
2022/07/03 01:23:08;;;;;;;;;;;;;;;-140.72;100.00;52380.72;5006883;28;19966;-67
2022/07/03 01:25:38;;;;;;;;;;;;;;;-140.72;100.00;52403.03;4998275;28;20209;-68
2022/07/03 01:28:23;;;;;;;;;;;;;;;-140.72;100.00;52411.16;4997822;28;19906;-69
2022/07/03 01:30:49;;;;;;;;;;;;;;;-140.72;100.00;52390.84;5004338;28;19946;-68
2022/07/03 01:33:24;;;;;;;;;;;;;;;-140.72;100.00;52378.69;4995355;28;19917;-68
2022/07/03 01:35:52;;;;;;;;;;;;;;;-140.72;100.00;52407.09;4990595;28;19938;-68
2022/07/03 01:38:17;;;;;;;;;;;;;;;-140.72;100.00;52378.69;4994125;28;19918;-68
2022/07/03 01:40:42;;;;;;;;;;;;;;;-140.72;100.00;52350.28;4995975;28;19927;-68
2022/07/03 01:43:11;;;;;;;;;;;;;;;-140.72;100.00;52358.41;4997382;28;19933;-70
2022/07/03 01:45:47;;;;;;;;;;;;;;;-140.72;100.00;52382.75;4996678;28;19937;-68
2022/07/03 01:48:13;;;;;;;;;;;;;;;-140.72;100.00;52423.31;4997243;28;19961;-68
2022/07/03 01:50:38;;;;;;;;;;;;;;;-140.72;100.00;52427.38;4998222;28;19995;-67
2022/07/03 01:53:06;;;;;;;;;;;;;;;-140.72;100.00;52380.72;4998178;28;19914;-69
2022/07/03 01:55:32;;;;;;;;;;;;;;;-140.72;100.00;52429.41;4991492;28;19932;-68
2022/07/03 01:57:57;;;;;;;;;;;;;;;-140.72;100.00;52427.38;4983890;28;19927;-68
2022/07/03 02:00:23;;;;;;;;;;;;;;;-140.72;100.00;52384.78;4991182;28;19933;-68
2022/07/03 02:03:03;;;;;;;;;;;;;;;-140.72;100.00;52398.97;4996875;28;19922;-67
2022/07/03 02:05:34;;;;;;;;;;;;;;;-140.72;100.00;52370.56;4985733;28;19903;-69
2022/07/03 02:08:18;;;;;;;;;;;;;;;-140.72;100.00;52390.84;4989804;28;19929;-68
2022/07/03 02:10:51;;;;;;;;;;;;;;;-140.72;100.00;52386.81;5009099;28;20063;-70
2022/07/03 02:13:19;;;;;;;;;;;;;;;-140.72;100.00;52392.88;4989682;28;19930;-69
2022/07/03 02:15:45;;;;;;;;;;;;;;;-140.72;100.00;52390.84;4987007;28;19910;-68
2022/07/03 02:18:16;;;;;;;;;;;;;;;-140.72;100.00;52362.44;4983049;28;19973;-69
2022/07/03 02:20:45;;;;;;;;;;;;;;;-140.72;100.00;52376.66;5004223;28;19907;-68
2022/07/03 02:23:11;;;;;;;;;;;;;;;-140.72;100.00;52396.94;4993180;28;19906;-69
2022/07/03 02:25:37;;;;;;;;;;;;;;;-140.72;100.00;52372.59;5000899;28;20018;-69
2022/07/03 02:28:02;;;;;;;;;;;;;;;-140.72;100.00;52425.34;4995953;28;19906;-68
2022/07/03 02:30:28;;;;;;;;;;;;;;;-140.72;100.00;52407.09;5014971;28;19937;-68
2022/07/03 03:31:47;;;;;;;;;;;;;;;-140.72;100.00;52388.84;5406402;22;19925;-71
2022/07/03 03:34:13;;;;;;;;;;;;;;;-140.72;100.00;52370.56;5005443;28;19922;-72
2022/07/03 03:36:39;;;;;;;;;;;;;;;-140.72;100.00;52374.63;5009937;28;20275;-72
2022/07/03 03:39:04;;;;;;;;;;;;;;;-140.72;100.00;52403.03;5004780;28;19918;-72
2022/07/03 03:41:29;;;;;;;;;;;;;;;-140.72;100.00;52394.91;5005842;28;19983;-72
2022/07/03 03:43:55;;;;;;;;;;;;;;;-140.72;100.00;52380.72;5015271;28;20287;-72
2022/07/03 03:46:20;;;;;;;;;;;;;;;-140.72;100.00;52388.84;5011187;28;19917;-71
2022/07/03 03:48:47;;;;;;;;;;;;;;;-140.72;100.00;52392.88;5008847;28;19956;-72
2022/07/03 03:51:12;;;;;;;;;;;;;;;-140.72;100.00;52392.88;5007931;28;20391;-72
2022/07/03 03:53:37;;;;;;;;;;;;;;;-140.72;100.00;52411.16;5007636;28;19929;-71
2022/07/03 03:56:11;;;;;;;;;;;;;;;-140.72;100.00;52360.44;5005587;28;19917;-72
2022/07/03 03:58:37;;;;;;;;;;;;;;;-140.72;100.00;52388.84;5011537;28;19947;-72
2022/07/03 04:01:03;;;;;;;;;;;;;;;-140.72;100.00;52398.97;5010361;28;19921;-72
2022/07/03 04:03:29;;;;;;;;;;;;;;;-140.72;100.00;52380.72;5009973;28;19917;-71
2022/07/03 04:05:54;;;;;;;;;;;;;;;-140.72;100.00;52380.72;4999043;28;19952;-72
2022/07/03 04:08:21;;;;;;;;;;;;;;;-140.72;100.00;52407.09;5016703;28;20370;-71
2022/07/03 04:10:46;;;;;;;;;;;;;;;-140.72;100.00;52382.75;5012355;28;20003;-72
2022/07/03 04:13:11;;;;;;;;;;;;;;;-140.72;100.00;52427.38;5005269;28;20278;-72
2022/07/03 04:15:37;;;;;;;;;;;;;;;-140.72;100.00;52409.13;5012953;28;19918;-72
2022/07/03 04:18:03;;;;;;;;;;;;;;;-140.72;100.00;52401.00;5009058;28;20282;-71
2022/07/03 04:20:36;;;;;;;;;;;;;;;-140.72;100.00;52392.88;5030602;28;19965;-71
2022/07/03 04:23:07;;;;;;;;;;;;;;;-140.72;100.00;52419.28;5018364;28;19921;-71
2022/07/03 04:25:33;;;;;;;;;;;;;;;-140.72;100.00;52394.91;5018273;28;20305;-71
2022/07/03 04:27:58;;;;;;;;;;;;;;;-140.72;100.00;52423.31;5017962;28;19983;-71
2022/07/03 04:30:23;;;;;;;;;;;;;;;-140.72;100.00;52415.22;5031430;28;19940;-71
2022/07/03 04:32:49;;;;;;;;;;;;;;;-140.72;100.00;52411.16;5008241;28;19940;-71
2022/07/03 04:35:14;;;;;;;;;;;;;;;-140.72;100.00;52384.78;5015013;28;19917;-70
2022/07/03 04:37:40;;;;;;;;;;;;;;;-140.72;100.00;52411.16;5010675;28;20018;-71
2022/07/03 04:40:06;;;;;;;;;;;;;;;-140.72;100.00;52396.94;5009115;28;20008;-71
2022/07/03 04:42:31;;;;;;;;;;;;;;;-140.72;100.00;52394.91;5008805;28;19928;-71
2022/07/03 04:44:57;;;;;;;;;;;;;;;-140.72;100.00;52380.72;5009613;28;19921;-71
2022/07/03 04:47:22;;;;;;;;;;;;;;;-140.72;100.00;52374.63;5030617;28;19921;-71
2022/07/03 04:49:47;;;;;;;;;;;;;;;-140.72;100.00;52401.00;5014238;28;19918;-70
2022/07/03 04:52:12;;;;;;;;;;;;;;;-140.72;100.00;52403.03;5019640;28;19952;-70
2022/07/03 04:54:38;;;;;;;;;;;;;;;-140.72;100.00;52380.72;5014329;28;19917;-72
2022/07/03 04:57:03;;;;;;;;;;;;;;;-140.72;100.00;52390.84;5013478;28;19918;-72
2022/07/03 04:59:28;;;;;;;;;;;;;;;-140.72;100.00;52427.38;5008268;28;20445;-72
2022/07/03 05:01:54;;;;;;;;;;;;;;;-140.72;100.00;52445.66;5032828;28;19917;-72
2022/07/03 05:04:20;;;;;;;;;;;;;;;-140.72;100.00;52392.88;5013255;28;19957;-72
2022/07/03 05:06:45;;;;;;;;;;;;;;;-140.72;100.00;52392.88;5026322;28;19932;-72
2022/07/03 05:09:11;;;;;;;;;;;;;;;-140.72;100.00;52398.97;5014116;28;19995;-71
2022/07/03 05:11:36;;;;;;;;;;;;;;;-140.72;100.00;52386.81;5013358;28;19945;-73
2022/07/03 05:14:02;;;;;;;;;;;;;;;-140.72;100.00;52368.53;5013316;28;20020;-72
2022/07/03 05:16:27;;;;;;;;;;;;;;;-140.72;100.00;52366.50;5012105;28;20386;-73
2022/07/03 05:18:53;;;;;;;;;;;;;;;-140.72;100.00;52368.53;5013344;28;19925;-72
2022/07/03 05:21:18;;;;;;;;;;;;;;;-140.72;100.00;52407.09;5013023;28;20335;-72
2022/07/03 05:23:43;;;;;;;;;;;;;;;-140.72;100.00;52376.66;5013464;28;19917;-73
2022/07/03 05:26:08;;;;;;;;;;;;;;;-140.72;100.00;52374.63;5011325;28;19917;-72
2022/07/03 05:28:34;;;;;;;;;;;;;;;-140.72;100.00;52392.88;4992762;28;19925;-71
2022/07/03 05:30:59;;;;;;;;;;;;;;;-140.72;100.00;52366.50;5006591;28;19960;-72
2022/07/03 05:33:24;;;;;;;;;;;;;;;-140.72;100.00;52405.06;5003043;28;20434;-73
2022/07/03 05:35:50;;;;;;;;;;;;;;;-140.72;100.00;52388.84;5015447;28;20295;-73
2022/07/03 05:39:31;;;;;;;;;;;;;;;-140.72;100.00;52380.72;5017821;28;19964;-73
2022/07/03 05:41:00;;;;;;;;;;;;;;;-140.72;100.00;52360.44;5011048;28;19917;-75
2022/07/03 05:43:25;;;;;;;;;;;;;;;-140.72;100.00;52401.00;4998004;28;19922;-74
2022/07/03 05:45:50;;;;;;;;;;;;;;;-140.72;100.00;52384.78;5019099;28;19971;-74
2022/07/03 05:48:16;;;;;;;;;;;;;;;-140.72;100.00;52419.28;5015343;28;19917;-74
2022/07/03 05:50:41;;;;;;;;;;;;;;;-140.72;100.00;52419.28;4998095;28;20084;-75
2022/07/03 05:53:06;;;;;;;;;;;;;;;-140.72;100.00;52380.72;5007514;28;19922;-77
2022/07/03 05:55:31;;;;;;;;;;;;;;;-140.72;100.00;52384.78;5015284;28;19999;-74
2022/07/03 05:57:56;;;;;;;;;;;;;;;-140.72;100.00;52342.16;5005001;28;20437;-73
2022/07/03 06:00:22;;;;;;;;;;;;;;;-140.72;100.00;52360.44;5016864;28;19944;-75
2022/07/03 06:02:47;;;;;;;;;;;;;;;-140.72;100.00;52362.44;5017512;28;19957;-73
2022/07/03 06:05:12;;;;;;;;;;;;;;;-140.72;100.00;52370.56;5012962;28;19964;-74
2022/07/03 06:07:44;;;;;;;;;;;;;;;-140.72;100.00;52362.44;5005518;28;20024;-73
2022/07/03 06:10:09;;;;;;;;;;;;;;;-140.72;100.00;52352.31;5013856;28;19924;-73
2022/07/03 06:12:34;;;;;;;;;;;;;;;-140.72;100.00;52358.41;5005769;28;19917;-73
2022/07/03 06:15:00;;;;;;;;;;;;;;;-140.72;100.00;52338.09;5017744;28;19979;-73
2022/07/03 06:17:25;;;;;;;;;;;;;;;-140.72;100.00;52366.50;5017048;28;19917;-73
2022/07/03 06:19:50;;;;;;;;;;;;;;;-140.72;100.00;52342.16;4997897;28;20762;-74
2022/07/03 06:22:15;;;;;;;;;;;;;;;-140.72;100.00;52346.22;5016624;28;19924;-73
2022/07/03 06:24:40;;;;;;;;;;;;;;;-140.72;100.00;52356.38;5024257;28;19945;-72
2022/07/03 06:27:06;;;;;;;;;;;;;;;-140.72;100.00;52334.03;5013906;28;19917;-73
2022/07/03 06:29:31;;;;;;;;;;;;;;;-140.72;100.00;52348.25;5015702;28;19922;-71
2022/07/03 06:31:56;;;;;;;;;;;;;;;-140.72;100.00;52313.75;4998435;28;19921;-73
2022/07/03 06:34:30;;;;;;;;;;;;;;;-140.72;100.00;52297.53;5014174;28;19923;-72
2022/07/03 06:36:55;;;;;;;;;;;;;;;-140.72;100.00;52332.03;5019224;28;20032;-71
2022/07/03 06:39:20;;;;;;;;;;;;;;;-140.72;100.00;52317.81;5019765;28;19952;-71
2022/07/03 06:41:45;;;;;;;;;;;;;;;-140.72;100.00;52350.28;5022825;28;19952;-71
2022/07/03 06:44:10;;;;;;;;;;;;;;;-140.72;100.00;52291.44;5020833;28;19932;-71
2022/07/03 06:46:36;;;;;;;;;;;;;;;-140.72;100.00;52275.19;5013112;28;19952;-70
2022/07/03 06:49:01;;;;;;;;;;;;;;;-140.72;100.00;52261.00;5015402;28;19926;-70
2022/07/03 06:51:26;;;;;;;;;;;;;;;-140.72;100.00;52263.03;5014627;28;19964;-70
2022/07/03 06:53:51;;;;;;;;;;;;;;;-140.72;100.00;52244.78;5013405;28;19925;-70
2022/07/03 06:56:17;;;;;;;;;;;;;;;-140.72;100.00;52285.34;5020710;28;19975;-70
2022/07/03 06:58:42;;;;;;;;;;;;;;;-140.72;100.00;52261.00;5016194;28;19988;-69
2022/07/03 07:01:07;;;;;;;;;;;;;;;-140.72;100.00;52261.00;5015037;28;19919;-70
2022/07/03 07:03:32;;;;;;;;;;;;;;;-140.72;100.00;52295.50;5017885;28;19917;-69
2022/07/03 07:05:57;;;;;;;;;;;;;;;-140.72;100.00;52291.44;5011536;28;19922;-70
2022/07/03 07:08:23;;;;;;;;;;;;;;;-140.72;100.00;52285.34;5016759;28;19918;-70
2022/07/03 07:10:48;;;;;;;;;;;;;;;-140.72;100.00;52307.66;5016752;28;19928;-69
2022/07/03 07:13:13;;;;;;;;;;;;;;;-140.72;100.00;52301.59;5008845;28;19929;-72
2022/07/03 07:15:38;;;;;;;;;;;;;;;-140.72;100.00;52283.31;5008529;28;19918;-75
2022/07/03 07:18:03;;;;;;;;;;;;;;;-140.72;100.00;52261.00;5006098;28;19918;-74
2022/07/03 07:20:29;;;;;;;;;;;;;;;-140.72;100.00;52317.81;5009807;28;19921;-74
2022/07/03 07:22:54;;;;;;;;;;;;;;;-140.72;100.00;52275.19;5012810;28;19918;-78
2022/07/03 07:25:20;;;;;;;;;;;;;;;-140.72;100.00;52297.53;5007314;28;19932;-80
2022/07/03 07:27:45;;;;;;;;;;;;;;;-140.72;100.00;52254.91;5017010;28;19983;-77
2022/07/03 07:30:10;;;;;;;;;;;;;;;-140.72;100.00;52279.25;5012447;28;19953;-74
2022/07/03 07:32:36;;;;;;;;;;;;;;;-140.72;100.00;52285.34;5011219;28;20375;-76
2022/07/03 07:35:02;;;;;;;;;;;;;;;-140.72;100.00;52295.50;5016421;28;19985;-76
2022/07/03 07:37:27;;;;;;;;;;;;;;;-140.72;100.00;52289.41;5010671;28;19985;-75
2022/07/03 07:39:52;;;;;;;;;;;;;;;-140.72;100.00;52305.63;5008329;28;19918;-77
2022/07/03 07:42:18;;;;;;;;;;;;;;;-140.72;100.00;52248.81;5008505;28;19925;-74
2022/07/03 07:44:43;;;;;;;;;;;;;;;-140.72;100.00;52285.34;5013591;28;19992;-74
2022/07/03 07:47:09;;;;;;;;;;;;;;;-140.72;100.00;52236.66;5007368;28;19918;-78
2022/07/03 07:49:34;;;;;;;;;;;;;;;-140.72;100.00;52244.78;5007123;28;19924;-80
2022/07/03 07:51:59;;;;;;;;;;;;;;;-140.72;100.00;52240.72;5001396;28;19918;-78
2022/07/03 07:54:24;;;;;;;;;;;;;;;-140.72;100.00;52281.28;5005498;28;19917;-74
2022/07/03 07:56:50;;;;;;;;;;;;;;;-140.72;100.00;52293.47;5000295;28;19918;-76
2022/07/03 07:59:15;;;;;;;;;;;;;;;-140.72;100.00;52309.69;5010527;28;19918;-76
2022/07/03 08:07:07;;;;;;;;;;;;;;;-140.72;100.00;52281.28;5012757;28;20016;-74
2022/07/03 08:09:33;;;;;;;;;;;;;;;-140.72;100.00;52295.50;5001598;28;19957;-77
2022/07/03 08:11:58;;;;;;;;;;;;;;;-140.72;100.00;52265.06;5001937;28;20426;-75
2022/07/03 08:14:23;;;;;;;;;;;;;;;-140.72;100.00;52301.59;5004373;28;19971;-77
2022/07/03 08:16:49;;;;;;;;;;;;;;;-140.72;100.00;52265.06;5007178;28;20490;-80
2022/07/03 08:19:14;;;;;;;;;;;;;;;-140.72;100.00;52295.50;4999230;28;19918;-78
2022/07/03 08:21:40;;;;;;;;;;;;;;;-140.72;100.00;52295.50;5003340;28;19918;-77
2022/07/03 08:24:06;;;;;;;;;;;;;;;-140.72;100.00;52283.31;5012683;28;19922;-77
2022/07/03 08:26:31;;;;;;;;;;;;;;;-140.72;100.00;52261.00;5010621;28;20041;-75
2022/07/03 08:28:56;;;;;;;;;;;;;;;-140.72;100.00;52281.28;5006065;28;20008;-75
2022/07/03 08:31:21;;;;;;;;;;;;;;;-140.72;100.00;52248.81;5010985;28;19925;-75
2022/07/03 08:33:46;;;;;;;;;;;;;;;-140.72;100.00;52234.63;5002854;28;19930;-77
2022/07/03 08:36:12;;;;;;;;;;;;;;;-140.72;100.00;52218.38;5013430;28;19921;-80
2022/07/03 08:38:37;;;;;;;;;;;;;;;-140.72;100.00;52252.88;5011530;28;19969;-82
2022/07/03 08:41:03;;;;;;;;;;;;;;;-140.72;100.00;52261.00;5014893;28;20282;-86
2022/07/03 08:43:28;;;;;;;;;;;;;;;-140.72;100.00;52218.38;5020023;28;20765;-81
2022/07/03 08:45:59;;;;;;;;;;;;;;;-140.72;100.00;52230.56;5013327;28;19917;-78
2022/07/03 08:48:24;;;;;;;;;;;;;;;-140.72;100.00;52183.91;5007404;28;19918;-79
2022/07/03 08:50:50;;;;;;;;;;;;;;;-140.72;100.00;52175.78;5013456;28;19929;-81
2022/07/03 08:53:16;;;;;;;;;;;;;;;-140.72;100.00;52141.28;5010530;28;19971;-76
2022/07/03 08:55:41;;;;;;;;;;;;;;;-140.72;100.00;52185.94;5007787;28;19941;-77
2022/07/03 08:58:10;;;;;;;;;;;;;;;-140.72;100.00;52179.84;4999749;28;20320;-77
2022/07/03 09:00:35;;;;;;;;;;;;;;;-140.72;100.00;52204.19;5007195;28;19940;-76
2022/07/03 09:03:04;;;;;;;;;;;;;;;-140.72;100.00;52224.47;5010412;28;19921;-76
2022/07/03 09:05:29;;;;;;;;;;;;;;;-140.72;100.00;52258.97;5006645;28;19928;-77
2022/07/03 09:07:55;;;;;;;;;;;;;;;-140.72;100.00;52238.69;5010606;28;19917;-76
2022/07/03 09:10:20;;;;;;;;;;;;;;;-140.72;100.00;52273.19;5001070;28;20011;-77
2022/07/03 09:12:47;;;;;;;;;;;;;;;-140.72;100.00;52299.56;5010671;28;19921;-77
2022/07/03 09:15:12;;;;;;;;;;;;;;;-140.72;100.00;52317.81;4999100;28;19925;-76
2022/07/03 09:17:38;;;;;;;;;;;;;;;-140.72;100.00;52256.94;5003209;28;20244;-78
2022/07/03 09:20:05;;;;;;;;;;;;;;;-140.72;100.00;52311.72;5014696;28;20378;-74
2022/07/03 09:22:37;;;;;;;;;;;;;;;-140.72;100.00;52327.97;5018138;28;20436;-74
2022/07/03 09:25:06;;;;;;;;;;;;;;;-140.72;100.00;52323.91;5011516;28;19928;-76
2022/07/03 09:27:32;;;;;;;;;;;;;;;-140.72;100.00;52378.69;5006321;28;20016;-76
2022/07/03 09:30:17;;;;;;;;;;;;;;;-140.72;100.00;52356.38;5014018;28;20030;-76
2022/07/03 09:32:43;;;;;;;;;;;;;;;-140.72;100.00;52386.81;5003831;28;19933;-76
2022/07/03 09:35:17;;;;;;;;;;;;;;;-140.72;100.00;52364.47;5008206;28;20387;-77
2022/07/03 09:37:59;;;;;;;;;;;;;;;-140.72;100.00;52398.97;5012888;28;19926;-76
2022/07/03 09:40:45;;;;;;;;;;;;;;;-140.72;100.00;52358.41;5010376;28;19929;-77
2022/07/03 09:43:10;;;;;;;;;;;;;;;-140.72;100.00;52386.81;5016822;28;19995;-76
2022/07/03 09:45:49;;;;;;;;;;;;;;;-140.72;100.00;52352.31;5000138;28;20383;-77
2022/07/03 09:48:26;;;;;;;;;;;;;;;-140.72;100.00;52281.28;4998757;28;19921;-77
2022/07/03 09:51:10;;;;;;;;;;;;;;;-140.72;100.00;52179.84;5003559;28;19960;-77
2022/07/03 09:53:56;;;;;;;;;;;;;;;-140.72;100.00;52196.06;4996455;28;19928;-76
2022/07/03 09:56:22;;;;;;;;;;;;;;;-140.72;100.00;52204.19;4999198;28;19919;-75
2022/07/03 09:59:03;;;;;;;;;;;;;;;-140.72;100.00;52163.59;5003992;28;19967;-75
2022/07/03 10:01:28;;;;;;;;;;;;;;;-140.72;100.00;52143.31;5026468;28;20257;-75
2022/07/03 10:03:54;;;;;;;;;;;;;;;-140.72;100.00;52159.56;5001920;28;20012;-76
2022/07/03 10:06:19;;;;;;;;;;;;;;;-140.72;100.00;52066.22;5006336;28;19924;-75
2022/07/03 10:08:45;;;;;;;;;;;;;;;-140.72;100.00;52084.47;5010714;28;20000;-75
2022/07/03 10:11:11;;;;;;;;;;;;;;;-140.72;100.00;52165.63;4993303;28;21172;-73
2022/07/03 10:13:39;;;;;;;;;;;;;;;-140.72;100.00;52226.50;5008154;28;19965;-75
2022/07/03 10:16:05;;;;;;;;;;;;;;;-140.72;100.00;52242.75;4998773;28;19988;-75
2022/07/03 10:18:31;;;;;;;;;;;;;;;-140.72;100.00;52265.06;5000584;28;19925;-75
2022/07/03 10:20:58;;;;;;;;;;;;;;;-140.72;100.00;52281.28;5000233;28;19925;-77
2022/07/03 10:23:24;;;;;;;;;;;;;;;-140.72;100.00;52317.81;5009706;28;20060;-75
2022/07/03 10:25:49;;;;;;;;;;;;;;;-140.72;100.00;52279.25;5007155;28;19949;-75
2022/07/03 10:28:16;;;;;;;;;;;;;;;-140.72;100.00;52267.09;5007943;28;19963;-76
2022/07/03 10:30:43;;;;;;;;;;;;;;;-140.72;100.00;52281.28;5010293;28;19929;-74
2022/07/03 10:33:08;;;;;;;;;;;;;;;-140.72;100.00;52299.56;5006683;28;20015;-73
2022/07/03 10:35:38;;;;;;;;;;;;;;;-140.72;100.00;52279.25;5005535;28;20375;-73
2022/07/03 10:38:03;;;;;;;;;;;;;;;-140.72;100.00;52129.13;5013857;28;20335;-73
2022/07/03 10:46:09;;;;;;;;;;;;;;;-140.72;100.00;52167.66;5001395;28;19980;-73
2022/07/03 10:48:50;;;;;;;;;;;;;;;-140.72;100.00;52232.59;5010434;28;20401;-74
2022/07/03 10:51:15;;;;;;;;;;;;;;;-140.72;100.00;52269.13;5013015;28;20445;-76
2022/07/03 10:53:41;;;;;;;;;;;;;;;-140.72;100.00;52281.28;5010741;28;20117;-76
2022/07/03 10:56:06;;;;;;;;;;;;;;;-140.72;100.00;52327.97;5007284;28;20171;-75
2022/07/03 10:58:31;;;;;;;;;;;;;;;-140.72;100.00;52332.03;5006671;28;20399;-74
2022/07/03 11:00:58;;;;;;;;;;;;;;;-140.72;100.00;52342.16;5012969;28;20413;-75
2022/07/03 11:03:44;;;;;;;;;;;;;;;-140.72;100.00;52354.34;5013560;28;19962;-76
2022/07/03 11:06:10;;;;;;;;;;;;;;;-140.72;100.00;52315.78;5006670;28;19994;-74
2022/07/03 11:08:55;;;;;;;;;;;;;;;-140.72;100.00;52358.41;5008068;28;19940;-73
2022/07/03 11:14:18;;;;;;;;;;;;;;;-140.72;100.00;52342.16;4998914;28;20403;-73
2022/07/03 11:16:45;;;;;;;;;;;;;;;-140.72;100.00;52330.00;5000431;28;19917;-73
2022/07/03 11:19:10;;;;;;;;;;;;;;;-140.72;100.00;52305.63;5003645;28;19922;-76
2022/07/03 11:21:39;;;;;;;;;;;;;;;-140.72;100.00;52175.78;4999465;28;20020;-76
2022/07/03 11:24:13;;;;;;;;;;;;;;;-140.72;100.00;52070.28;5015165;28;20371;-75
2022/07/03 11:26:38;;;;;;;;;;;;;;;-140.72;100.00;52084.47;5027007;28;19968;-76
2022/07/03 11:29:03;;;;;;;;;;;;;;;-140.72;100.00;52052.00;5014366;28;19941;-74
2022/07/03 11:31:29;;;;;;;;;;;;;;;-140.72;100.00;52127.09;5002911;28;19932;-75
2022/07/03 11:33:54;;;;;;;;;;;;;;;-140.72;100.00;52189.97;5009723;28;19921;-74
2022/07/03 11:36:30;;;;;;;;;;;;;;;-140.72;100.00;52234.63;5001844;28;19918;-74
2022/07/03 11:38:55;;;;;;;;;;;;;;;-140.72;100.00;52261.00;5007552;28;20289;-74
2022/07/03 11:41:20;;;;;;;;;;;;;;;-140.72;100.00;52254.91;5009280;28;19917;-73
2022/07/03 11:43:46;;;;;;;;;;;;;;;-140.72;100.00;52248.81;5019773;28;19924;-73
2022/07/03 11:46:16;;;;;;;;;;;;;;;-140.72;100.00;52256.94;5012991;28;19949;-82
2022/07/03 11:48:42;;;;;;;;;;;;;;;-140.72;100.00;52234.63;5004994;28;19961;-75
2022/07/03 11:51:07;;;;;;;;;;;;;;;-140.72;100.00;52200.13;5026315;28;19924;-76
2022/07/03 11:53:38;;;;;;;;;;;;;;;-140.72;100.00;52175.78;5013384;28;19967;-76
2022/07/03 11:56:04;;;;;;;;;;;;;;;-140.72;100.00;52192.00;5013838;28;19969;-74
2022/07/03 11:58:49;;;;;;;;;;;;;;;-140.72;100.00;52043.91;5014236;28;19922;-74
2022/07/03 12:01:23;;;;;;;;;;;;;;;-140.72;100.00;51985.06;5030621;28;19929;-74
2022/07/03 12:04:19;;;;;;;;;;;;;;;-140.72;100.00;51920.13;5018327;28;19930;-74
2022/07/03 12:06:44;;;;;;;;;;;;;;;-140.72;100.00;52015.50;4998348;28;19968;-71
2022/07/03 12:09:19;;;;;;;;;;;;;;;-140.72;100.00;52084.47;4994738;28;19952;-73
2022/07/03 12:11:54;;;;;;;;;;;;;;;-140.72;100.00;52131.16;5002843;28;20298;-73
2022/07/03 12:14:38;;;;;;;;;;;;;;;-140.72;100.00;52192.00;5006028;28;19968;-73
2022/07/03 12:17:04;;;;;;;;;;;;;;;-140.72;100.00;52240.72;5018932;28;20384;-71
2022/07/03 12:19:30;;;;;;;;;;;;;;;-140.72;100.00;52285.34;5016135;28;19917;-71
2022/07/03 12:21:55;;;;;;;;;;;;;;;-140.72;100.00;52305.63;5001014;28;20386;-72
2022/07/03 12:24:20;;;;;;;;;;;;;;;-140.72;100.00;52311.72;4998508;28;19917;-71
2022/07/03 12:26:47;;;;;;;;;;;;;;;-140.72;100.00;52297.53;5000416;28;19940;-70
2022/07/03 12:29:14;;;;;;;;;;;;;;;-140.72;100.00;52297.53;5007910;28;19952;-71
2022/07/03 12:31:40;;;;;;;;;;;;;;;-140.72;100.00;52291.44;5005009;28;19921;-71
2022/07/03 12:34:05;;;;;;;;;;;;;;;-140.72;100.00;52299.56;5010742;28;19925;-70
2022/07/03 12:36:31;;;;;;;;;;;;;;;-140.72;100.00;52303.59;5008694;28;19918;-70
2022/07/03 12:38:57;;;;;;;;;;;;;;;-140.72;100.00;52301.59;5002779;28;19925;-71
2022/07/03 12:41:23;;;;;;;;;;;;;;;-140.72;100.00;52325.94;5010086;28;20632;-70
2022/07/03 12:43:49;;;;;;;;;;;;;;;-140.72;100.00;52293.47;5008616;28;19976;-70
2022/07/03 12:46:20;;;;;;;;;;;;;;;-140.72;100.00;52265.06;4999779;28;19922;-71
2022/07/03 12:48:46;;;;;;;;;;;;;;;-140.72;100.00;52165.63;5003463;28;19960;-70
2022/07/03 12:51:12;;;;;;;;;;;;;;;-140.72;100.00;52021.56;5005334;28;19917;-71
2022/07/03 12:53:37;;;;;;;;;;;;;;;-140.72;100.00;52013.47;4999957;28;19968;-71
2022/07/03 12:56:06;;;;;;;;;;;;;;;-140.72;100.00;51997.22;5004795;28;19924;-71
2022/07/03 13:01:24;;;;;;;;;;;;;;;-140.72;100.00;52143.31;5007914;28;19924;-72
2022/07/03 13:03:49;;;;;;;;;;;;;;;-140.72;100.00;52137.22;5007091;28;19925;-71
2022/07/03 13:06:15;;;;;;;;;;;;;;;-140.72;100.00;52224.47;5005509;28;19918;-72
2022/07/03 13:08:48;;;;;;;;;;;;;;;-140.72;100.00;52240.72;5002592;28;19924;-72
2022/07/03 13:11:13;;;;;;;;;;;;;;;-140.72;100.00;52232.59;5009591;28;19925;-72
2022/07/03 13:13:48;;;;;;;;;;;;;;;-140.72;100.00;52208.25;5021601;28;19917;-72
2022/07/03 13:16:23;;;;;;;;;;;;;;;-140.72;100.00;52242.75;5018063;28;19918;-73
2022/07/03 13:18:58;;;;;;;;;;;;;;;-140.72;100.00;52216.34;5012521;28;19971;-73
2022/07/03 13:21:23;;;;;;;;;;;;;;;-140.72;100.00;52212.31;5015748;28;19917;-74
2022/07/03 13:23:49;;;;;;;;;;;;;;;-140.72;100.00;52090.56;5005826;28;19939;-74
2022/07/03 13:26:14;;;;;;;;;;;;;;;-140.72;100.00;52037.81;5015754;28;20056;-73
2022/07/03 13:28:39;;;;;;;;;;;;;;;-140.72;100.00;52031.72;5016371;28;19917;-73
2022/07/03 13:31:04;;;;;;;;;;;;;;;-140.72;100.00;52123.03;5025740;28;19921;-73
2022/07/03 13:33:29;;;;;;;;;;;;;;;-140.72;100.00;52159.56;5014216;28;19924;-75
2022/07/03 13:35:55;;;;;;;;;;;;;;;-140.72;100.00;52112.88;5009692;28;19924;-73